sensor_id;sensor_type;location;lat;lon;timestamp;pressure;altitude;pressure_sealevel;temperature
20848;BMP180;10584;50.854;12.902;2024-01-15T00:00:31;96234.00;;;-0.50
20848;BMP180;10584;50.854;12.902;2024-01-15T00:05:53;96219.00;;;-0.60
20848;BMP180;10584;50.854;12.902;2024-01-15T00:11:14;96210.00;;;-0.60
20848;BMP180;10584;50.854;12.902;2024-01-15T00:16:36;96212.00;;;-0.70
20848;BMP180;10584;50.854;12.902;2024-01-15T00:21:58;96203.00;;;-0.70
20848;BMP180;10584;50.854;12.902;2024-01-15T00:27:20;96211.00;;;-0.70
20848;BMP180;10584;50.854;12.902;2024-01-15T00:32:42;96191.00;;;-0.60
20848;BMP180;10584;50.854;12.902;2024-01-15T00:38:03;96195.00;;;-0.60
20848;BMP180;10584;50.854;12.902;2024-01-15T00:43:25;96174.00;;;-0.70
20848;BMP180;10584;50.854;12.902;2024-01-15T00:48:46;96180.00;;;-0.70
20848;BMP180;10584;50.854;12.902;2024-01-15T00:54:09;96179.00;;;-0.70
20848;BMP180;10584;50.854;12.902;2024-01-15T00:59:30;96192.00;;;-0.80
20848;BMP180;10584;50.854;12.902;2024-01-15T01:04:52;96186.00;;;-0.90
20848;BMP180;10584;50.854;12.902;2024-01-15T01:10:13;96177.00;;;-0.90
20848;BMP180;10584;50.854;12.902;2024-01-15T01:15:35;96167.00;;;-0.80
20848;BMP180;10584;50.854;12.902;2024-01-15T01:21:00;96155.00;;;-0.80
20848;BMP180;10584;50.854;12.902;2024-01-15T01:26:22;96154.00;;;-0.90
20848;BMP180;10584;50.854;12.902;2024-01-15T01:31:45;96144.00;;;-0.90
20848;BMP180;10584;50.854;12.902;2024-01-15T01:37:11;96140.00;;;-1.00
20848;BMP180;10584;50.854;12.902;2024-01-15T01:42:34;96118.00;;;-1.00
20848;BMP180;10584;50.854;12.902;2024-01-15T01:47:56;96134.00;;;-1.00
20848;BMP180;10584;50.854;12.902;2024-01-15T01:53:17;96160.00;;;-1.10
20848;BMP180;10584;50.854;12.902;2024-01-15T01:58:39;96165.00;;;-1.10
20848;BMP180;10584;50.854;12.902;2024-01-15T02:04:01;96169.00;;;-1.10
20848;BMP180;10584;50.854;12.902;2024-01-15T02:09:23;96162.00;;;-1.00
20848;BMP180;10584;50.854;12.902;2024-01-15T02:14:45;96165.00;;;-1.10
20848;BMP180;10584;50.854;12.902;2024-01-15T02:20:07;96153.00;;;-1.00
20848;BMP180;10584;50.854;12.902;2024-01-15T02:25:29;96155.00;;;-1.20
20848;BMP180;10584;50.854;12.902;2024-01-15T02:30:51;96157.00;;;-1.20
20848;BMP180;10584;50.854;12.902;2024-01-15T02:36:12;96167.00;;;-1.30
20848;BMP180;10584;50.854;12.902;2024-01-15T02:41:34;96166.00;;;-1.40
20848;BMP180;10584;50.854;12.902;2024-01-15T02:46:56;96149.00;;;-1.40
20848;BMP180;10584;50.854;12.902;2024-01-15T02:52:18;96152.00;;;-1.40
20848;BMP180;10584;50.854;12.902;2024-01-15T02:57:39;96148.00;;;-1.50
20848;BMP180;10584;50.854;12.902;2024-01-15T03:03:01;96158.00;;;-1.50
20848;BMP180;10584;50.854;12.902;2024-01-15T03:08:22;96169.00;;;-1.50
20848;BMP180;10584;50.854;12.902;2024-01-15T03:13:44;96176.00;;;-1.60
20848;BMP180;10584;50.854;12.902;2024-01-15T03:19:06;96152.00;;;-1.70
20848;BMP180;10584;50.854;12.902;2024-01-15T03:24:29;96164.00;;;-1.80
20848;BMP180;10584;50.854;12.902;2024-01-15T03:29:53;96167.00;;;-1.70
20848;BMP180;10584;50.854;12.902;2024-01-15T03:35:16;96164.00;;;-1.90
20848;BMP180;10584;50.854;12.902;2024-01-15T03:40:40;96153.00;;;-1.90
20848;BMP180;10584;50.854;12.902;2024-01-15T03:46:05;96182.00;;;-1.90
20848;BMP180;10584;50.854;12.902;2024-01-15T03:51:29;96172.00;;;-1.90
20848;BMP180;10584;50.854;12.902;2024-01-15T03:56:54;96167.00;;;-1.90
20848;BMP180;10584;50.854;12.902;2024-01-15T04:02:20;96155.00;;;-1.90
20848;BMP180;10584;50.854;12.902;2024-01-15T04:07:45;96168.00;;;-2.00
20848;BMP180;10584;50.854;12.902;2024-01-15T04:13:09;96161.00;;;-2.10
20848;BMP180;10584;50.854;12.902;2024-01-15T04:18:32;96151.00;;;-2.10
20848;BMP180;10584;50.854;12.902;2024-01-15T04:23:57;96168.00;;;-2.10
20848;BMP180;10584;50.854;12.902;2024-01-15T04:29:22;96153.00;;;-2.20
20848;BMP180;10584;50.854;12.902;2024-01-15T04:34:45;96147.00;;;-2.10
20848;BMP180;10584;50.854;12.902;2024-01-15T04:40:10;96161.00;;;-2.20
20848;BMP180;10584;50.854;12.902;2024-01-15T04:45:40;96155.00;;;-2.10
20848;BMP180;10584;50.854;12.902;2024-01-15T04:51:08;96154.00;;;-2.10
20848;BMP180;10584;50.854;12.902;2024-01-15T04:56:33;96155.00;;;-2.10
20848;BMP180;10584;50.854;12.902;2024-01-15T05:01:56;96166.00;;;-2.10
20848;BMP180;10584;50.854;12.902;2024-01-15T05:07:17;96177.00;;;-2.10
20848;BMP180;10584;50.854;12.902;2024-01-15T05:12:38;96185.00;;;-2.00
20848;BMP180;10584;50.854;12.902;2024-01-15T05:18:00;96171.00;;;-2.10
20848;BMP180;10584;50.854;12.902;2024-01-15T05:23:22;96172.00;;;-2.10
20848;BMP180;10584;50.854;12.902;2024-01-15T05:28:43;96176.00;;;-2.00
20848;BMP180;10584;50.854;12.902;2024-01-15T05:34:05;96184.00;;;-1.90
20848;BMP180;10584;50.854;12.902;2024-01-15T05:39:27;96185.00;;;-2.00
20848;BMP180;10584;50.854;12.902;2024-01-15T05:44:48;96178.00;;;-2.00
20848;BMP180;10584;50.854;12.902;2024-01-15T05:50:10;96164.00;;;-1.90
20848;BMP180;10584;50.854;12.902;2024-01-15T05:55:32;96157.00;;;-1.90
20848;BMP180;10584;50.854;12.902;2024-01-15T06:00:53;96137.00;;;-1.80
20848;BMP180;10584;50.854;12.902;2024-01-15T06:06:15;96143.00;;;-2.00
20848;BMP180;10584;50.854;12.902;2024-01-15T06:11:37;96149.00;;;-2.10
20848;BMP180;10584;50.854;12.902;2024-01-15T06:16:59;96140.00;;;-2.10
20848;BMP180;10584;50.854;12.902;2024-01-15T06:22:20;96135.00;;;-2.10
20848;BMP180;10584;50.854;12.902;2024-01-15T06:27:42;96110.00;;;-2.20
20848;BMP180;10584;50.854;12.902;2024-01-15T06:33:06;96120.00;;;-2.10
20848;BMP180;10584;50.854;12.902;2024-01-15T06:38:28;96119.00;;;-2.10
20848;BMP180;10584;50.854;12.902;2024-01-15T06:43:50;96132.00;;;-2.00
20848;BMP180;10584;50.854;12.902;2024-01-15T06:49:12;96129.00;;;-2.00
20848;BMP180;10584;50.854;12.902;2024-01-15T06:54:34;96130.00;;;-2.00
20848;BMP180;10584;50.854;12.902;2024-01-15T06:59:55;96127.00;;;-2.10
20848;BMP180;10584;50.854;12.902;2024-01-15T07:05:17;96127.00;;;-2.10
20848;BMP180;10584;50.854;12.902;2024-01-15T07:10:38;96143.00;;;-2.10
20848;BMP180;10584;50.854;12.902;2024-01-15T07:16:00;96150.00;;;-2.10
20848;BMP180;10584;50.854;12.902;2024-01-15T07:21:21;96141.00;;;-2.10
20848;BMP180;10584;50.854;12.902;2024-01-15T07:26:43;96156.00;;;-2.10
20848;BMP180;10584;50.854;12.902;2024-01-15T07:32:05;96143.00;;;-2.00
20848;BMP180;10584;50.854;12.902;2024-01-15T07:37:26;96150.00;;;-2.10
20848;BMP180;10584;50.854;12.902;2024-01-15T07:42:48;96152.00;;;-2.00
20848;BMP180;10584;50.854;12.902;2024-01-15T07:48:10;96173.00;;;-2.10
20848;BMP180;10584;50.854;12.902;2024-01-15T07:53:31;96168.00;;;-2.10
20848;BMP180;10584;50.854;12.902;2024-01-15T07:58:53;96164.00;;;-2.00
20848;BMP180;10584;50.854;12.902;2024-01-15T08:04:15;96182.00;;;-2.00
20848;BMP180;10584;50.854;12.902;2024-01-15T08:09:36;96168.00;;;-2.00
20848;BMP180;10584;50.854;12.902;2024-01-15T08:14:58;96183.00;;;-1.90
20848;BMP180;10584;50.854;12.902;2024-01-15T08:20:20;96181.00;;;-1.90
20848;BMP180;10584;50.854;12.902;2024-01-15T08:25:41;96188.00;;;-1.80
20848;BMP180;10584;50.854;12.902;2024-01-15T08:31:03;96191.00;;;-1.80
20848;BMP180;10584;50.854;12.902;2024-01-15T08:36:24;96173.00;;;-1.80
20848;BMP180;10584;50.854;12.902;2024-01-15T08:41:46;96177.00;;;-1.70
20848;BMP180;10584;50.854;12.902;2024-01-15T08:47:08;96171.00;;;-1.70
20848;BMP180;10584;50.854;12.902;2024-01-15T08:52:30;96184.00;;;-1.70
20848;BMP180;10584;50.854;12.902;2024-01-15T08:57:52;96165.00;;;-1.60
20848;BMP180;10584;50.854;12.902;2024-01-15T09:03:14;96177.00;;;-1.60
20848;BMP180;10584;50.854;12.902;2024-01-15T09:08:35;96182.00;;;-1.70
20848;BMP180;10584;50.854;12.902;2024-01-15T09:13:58;96172.00;;;-1.60
20848;BMP180;10584;50.854;12.902;2024-01-15T09:19:19;96172.00;;;-1.40
20848;BMP180;10584;50.854;12.902;2024-01-15T09:24:41;96176.00;;;-1.30
20848;BMP180;10584;50.854;12.902;2024-01-15T09:30:04;96178.00;;;-1.30
20848;BMP180;10584;50.854;12.902;2024-01-15T09:35:26;96169.00;;;-1.30
20848;BMP180;10584;50.854;12.902;2024-01-15T09:40:48;96174.00;;;-1.10
20848;BMP180;10584;50.854;12.902;2024-01-15T09:46:10;96177.00;;;-1.10
20848;BMP180;10584;50.854;12.902;2024-01-15T09:51:34;96177.00;;;-1.00
20848;BMP180;10584;50.854;12.902;2024-01-15T09:56:56;96171.00;;;-1.00
20848;BMP180;10584;50.854;12.902;2024-01-15T10:02:18;96196.00;;;-0.90
20848;BMP180;10584;50.854;12.902;2024-01-15T10:07:40;96166.00;;;-1.00
20848;BMP180;10584;50.854;12.902;2024-01-15T10:13:03;96155.00;;;-1.00
20848;BMP180;10584;50.854;12.902;2024-01-15T10:18:25;96151.00;;;-0.70
20848;BMP180;10584;50.854;12.902;2024-01-15T10:23:47;96170.00;;;-0.70
20848;BMP180;10584;50.854;12.902;2024-01-15T10:29:12;96153.00;;;-0.60
20848;BMP180;10584;50.854;12.902;2024-01-15T10:34:39;96137.00;;;-0.50
20848;BMP180;10584;50.854;12.902;2024-01-15T10:40:03;96156.00;;;-0.40
20848;BMP180;10584;50.854;12.902;2024-01-15T10:45:28;96151.00;;;-0.40
20848;BMP180;10584;50.854;12.902;2024-01-15T10:50:49;96137.00;;;-0.30
20848;BMP180;10584;50.854;12.902;2024-01-15T10:56:12;96148.00;;;-0.40
20848;BMP180;10584;50.854;12.902;2024-01-15T11:01:34;96133.00;;;-0.30
20848;BMP180;10584;50.854;12.902;2024-01-15T11:06:56;96129.00;;;-0.20
20848;BMP180;10584;50.854;12.902;2024-01-15T11:12:18;96129.00;;;0.10
20848;BMP180;10584;50.854;12.902;2024-01-15T11:18:01;96132.00;;;0.20
20848;BMP180;10584;50.854;12.902;2024-01-15T11:23:42;96126.00;;;0.20
20848;BMP180;10584;50.854;12.902;2024-01-15T11:29:08;96127.00;;;0.20
20848;BMP180;10584;50.854;12.902;2024-01-15T11:34:53;96131.00;;;0.00
20848;BMP180;10584;50.854;12.902;2024-01-15T11:40:18;96126.00;;;0.10
20848;BMP180;10584;50.854;12.902;2024-01-15T11:45:40;96132.00;;;0.00
20848;BMP180;10584;50.854;12.902;2024-01-15T11:51:03;96126.00;;;0.00
20848;BMP180;10584;50.854;12.902;2024-01-15T11:56:25;96123.00;;;0.00
20848;BMP180;10584;50.854;12.902;2024-01-15T12:01:46;96113.00;;;-0.10
20848;BMP180;10584;50.854;12.902;2024-01-15T12:07:08;96125.00;;;-0.10
20848;BMP180;10584;50.854;12.902;2024-01-15T12:18:09;96116.00;;;-0.10
20848;BMP180;10584;50.854;12.902;2024-01-15T12:23:33;96143.00;;;-0.10
20848;BMP180;10584;50.854;12.902;2024-01-15T12:28:55;96109.00;;;-0.10
20848;BMP180;10584;50.854;12.902;2024-01-15T12:34:18;96129.00;;;0.00
20848;BMP180;10584;50.854;12.902;2024-01-15T12:39:42;96131.00;;;-0.20
20848;BMP180;10584;50.854;12.902;2024-01-15T12:45:06;96121.00;;;-0.10
20848;BMP180;10584;50.854;12.902;2024-01-15T12:50:27;96121.00;;;-0.20
20848;BMP180;10584;50.854;12.902;2024-01-15T12:55:49;96118.00;;;-0.10
20848;BMP180;10584;50.854;12.902;2024-01-15T13:01:11;96111.00;;;-0.10
20848;BMP180;10584;50.854;12.902;2024-01-15T13:06:33;96110.00;;;-0.10
20848;BMP180;10584;50.854;12.902;2024-01-15T13:11:56;96113.00;;;-0.10
20848;BMP180;10584;50.854;12.902;2024-01-15T13:17:18;96109.00;;;-0.10
20848;BMP180;10584;50.854;12.902;2024-01-15T13:22:40;96103.00;;;-0.30
20848;BMP180;10584;50.854;12.902;2024-01-15T13:28:06;96115.00;;;-0.30
20848;BMP180;10584;50.854;12.902;2024-01-15T13:33:28;96119.00;;;-0.30
20848;BMP180;10584;50.854;12.902;2024-01-15T13:38:51;96125.00;;;-0.20
20848;BMP180;10584;50.854;12.902;2024-01-15T13:44:13;96123.00;;;-0.30
20848;BMP180;10584;50.854;12.902;2024-01-15T13:49:35;96123.00;;;-0.30
20848;BMP180;10584;50.854;12.902;2024-01-15T13:54:58;96128.00;;;-0.30
20848;BMP180;10584;50.854;12.902;2024-01-15T14:00:19;96116.00;;;-0.40
20848;BMP180;10584;50.854;12.902;2024-01-15T14:05:42;96119.00;;;-0.40
20848;BMP180;10584;50.854;12.902;2024-01-15T14:11:03;96131.00;;;-0.40
20848;BMP180;10584;50.854;12.902;2024-01-15T14:16:27;96134.00;;;-0.50
20848;BMP180;10584;50.854;12.902;2024-01-15T14:21:48;96139.00;;;-0.50
20848;BMP180;10584;50.854;12.902;2024-01-15T14:27:10;96140.00;;;-0.40
20848;BMP180;10584;50.854;12.902;2024-01-15T14:32:31;96150.00;;;-0.50
20848;BMP180;10584;50.854;12.902;2024-01-15T14:37:53;96153.00;;;-0.50
20848;BMP180;10584;50.854;12.902;2024-01-15T14:43:15;96156.00;;;-0.60
20848;BMP180;10584;50.854;12.902;2024-01-15T14:48:36;96177.00;;;-0.60
20848;BMP180;10584;50.854;12.902;2024-01-15T14:53:58;96178.00;;;-0.70
20848;BMP180;10584;50.854;12.902;2024-01-15T14:59:19;96169.00;;;-0.60
20848;BMP180;10584;50.854;12.902;2024-01-15T15:04:41;96179.00;;;-0.70
20848;BMP180;10584;50.854;12.902;2024-01-15T15:10:07;96184.00;;;-0.50
20848;BMP180;10584;50.854;12.902;2024-01-15T15:15:29;96194.00;;;-0.50
20848;BMP180;10584;50.854;12.902;2024-01-15T15:20:50;96187.00;;;-0.80
20848;BMP180;10584;50.854;12.902;2024-01-15T15:26:14;96201.00;;;-0.70
20848;BMP180;10584;50.854;12.902;2024-01-15T15:31:36;96210.00;;;-0.80
20848;BMP180;10584;50.854;12.902;2024-01-15T15:36:57;96210.00;;;-0.80
20848;BMP180;10584;50.854;12.902;2024-01-15T15:42:19;96214.00;;;-0.80
20848;BMP180;10584;50.854;12.902;2024-01-15T15:47:41;96213.00;;;-0.70
20848;BMP180;10584;50.854;12.902;2024-01-15T15:53:02;96216.00;;;-0.80
20848;BMP180;10584;50.854;12.902;2024-01-15T15:58:25;96217.00;;;-0.80
20848;BMP180;10584;50.854;12.902;2024-01-15T16:03:46;96228.00;;;-0.90
20848;BMP180;10584;50.854;12.902;2024-01-15T16:09:07;96243.00;;;-0.70
20848;BMP180;10584;50.854;12.902;2024-01-15T16:14:32;96235.00;;;-0.70
20848;BMP180;10584;50.854;12.902;2024-01-15T16:19:53;96244.00;;;-0.70
20848;BMP180;10584;50.854;12.902;2024-01-15T16:25:35;96243.00;;;-0.80
20848;BMP180;10584;50.854;12.902;2024-01-15T16:31:00;96252.00;;;-0.70
20848;BMP180;10584;50.854;12.902;2024-01-15T16:36:28;96235.00;;;-0.80
20848;BMP180;10584;50.854;12.902;2024-01-15T16:41:50;96253.00;;;-0.80
20848;BMP180;10584;50.854;12.902;2024-01-15T16:47:12;96251.00;;;-0.80
20848;BMP180;10584;50.854;12.902;2024-01-15T16:52:33;96254.00;;;-0.70
20848;BMP180;10584;50.854;12.902;2024-01-15T16:57:55;96248.00;;;-0.70
20848;BMP180;10584;50.854;12.902;2024-01-15T17:03:16;96256.00;;;-0.70
20848;BMP180;10584;50.854;12.902;2024-01-15T17:08:38;96250.00;;;-0.60
20848;BMP180;10584;50.854;12.902;2024-01-15T17:13:59;96268.00;;;-0.80
20848;BMP180;10584;50.854;12.902;2024-01-15T17:19:22;96277.00;;;-0.70
20848;BMP180;10584;50.854;12.902;2024-01-15T17:24:43;96285.00;;;-0.70
20848;BMP180;10584;50.854;12.902;2024-01-15T17:30:09;96272.00;;;-0.80
20848;BMP180;10584;50.854;12.902;2024-01-15T17:35:30;96275.00;;;-0.70
20848;BMP180;10584;50.854;12.902;2024-01-15T17:40:52;96280.00;;;-0.70
20848;BMP180;10584;50.854;12.902;2024-01-15T17:46:14;96276.00;;;-0.70
20848;BMP180;10584;50.854;12.902;2024-01-15T17:51:35;96281.00;;;-0.80
20848;BMP180;10584;50.854;12.902;2024-01-15T17:56:58;96282.00;;;-0.80
20848;BMP180;10584;50.854;12.902;2024-01-15T18:02:20;96284.00;;;-0.70
20848;BMP180;10584;50.854;12.902;2024-01-15T18:07:42;96288.00;;;-0.80
20848;BMP180;10584;50.854;12.902;2024-01-15T18:13:04;96284.00;;;-1.00
20848;BMP180;10584;50.854;12.902;2024-01-15T18:18:26;96292.00;;;-0.90
20848;BMP180;10584;50.854;12.902;2024-01-15T18:23:48;96292.00;;;-0.90
20848;BMP180;10584;50.854;12.902;2024-01-15T18:29:10;96284.00;;;-0.80
20848;BMP180;10584;50.854;12.902;2024-01-15T18:34:31;96284.00;;;-0.90
20848;BMP180;10584;50.854;12.902;2024-01-15T18:39:54;96292.00;;;-0.80
20848;BMP180;10584;50.854;12.902;2024-01-15T18:45:16;96296.00;;;-0.80
20848;BMP180;10584;50.854;12.902;2024-01-15T18:50:38;96299.00;;;-0.80
20848;BMP180;10584;50.854;12.902;2024-01-15T18:56:02;96305.00;;;-0.80
20848;BMP180;10584;50.854;12.902;2024-01-15T19:01:30;96300.00;;;-0.80
20848;BMP180;10584;50.854;12.902;2024-01-15T19:06:53;96311.00;;;-0.70
20848;BMP180;10584;50.854;12.902;2024-01-15T19:12:14;96308.00;;;-0.70
20848;BMP180;10584;50.854;12.902;2024-01-15T19:17:36;96328.00;;;-0.60
20848;BMP180;10584;50.854;12.902;2024-01-15T19:22:58;96316.00;;;-0.60
20848;BMP180;10584;50.854;12.902;2024-01-15T19:28:22;96335.00;;;-0.50
20848;BMP180;10584;50.854;12.902;2024-01-15T19:33:44;96336.00;;;-0.70
20848;BMP180;10584;50.854;12.902;2024-01-15T19:39:05;96336.00;;;-0.90
20848;BMP180;10584;50.854;12.902;2024-01-15T19:44:31;96349.00;;;-0.90
20848;BMP180;10584;50.854;12.902;2024-01-15T19:49:52;96349.00;;;-0.80
20848;BMP180;10584;50.854;12.902;2024-01-15T19:55:15;96362.00;;;-0.70
20848;BMP180;10584;50.854;12.902;2024-01-15T20:00:36;96380.00;;;-0.90
20848;BMP180;10584;50.854;12.902;2024-01-15T20:05:58;96374.00;;;-1.00
20848;BMP180;10584;50.854;12.902;2024-01-15T20:11:20;96400.00;;;-1.30
20848;BMP180;10584;50.854;12.902;2024-01-15T20:16:41;96407.00;;;-1.20
20848;BMP180;10584;50.854;12.902;2024-01-15T20:22:03;96405.00;;;-1.20
20848;BMP180;10584;50.854;12.902;2024-01-15T20:27:25;96417.00;;;-1.10
20848;BMP180;10584;50.854;12.902;2024-01-15T20:32:46;96420.00;;;-1.10
20848;BMP180;10584;50.854;12.902;2024-01-15T20:38:08;96429.00;;;-1.20
20848;BMP180;10584;50.854;12.902;2024-01-15T20:43:29;96411.00;;;-1.20
20848;BMP180;10584;50.854;12.902;2024-01-15T20:48:51;96456.00;;;-1.20
20848;BMP180;10584;50.854;12.902;2024-01-15T20:54:12;96457.00;;;-1.30
20848;BMP180;10584;50.854;12.902;2024-01-15T20:59:34;96446.00;;;-1.30
20848;BMP180;10584;50.854;12.902;2024-01-15T21:04:57;96455.00;;;-1.20
20848;BMP180;10584;50.854;12.902;2024-01-15T21:10:19;96455.00;;;-1.10
20848;BMP180;10584;50.854;12.902;2024-01-15T21:15:41;96454.00;;;-1.10
20848;BMP180;10584;50.854;12.902;2024-01-15T21:21:03;96474.00;;;-1.00
20848;BMP180;10584;50.854;12.902;2024-01-15T21:26:26;96491.00;;;-0.90
20848;BMP180;10584;50.854;12.902;2024-01-15T21:31:48;96501.00;;;-0.80
20848;BMP180;10584;50.854;12.902;2024-01-15T21:37:10;96503.00;;;-0.80
20848;BMP180;10584;50.854;12.902;2024-01-15T21:42:31;96514.00;;;-0.70
20848;BMP180;10584;50.854;12.902;2024-01-15T21:47:53;96508.00;;;-0.60
20848;BMP180;10584;50.854;12.902;2024-01-15T21:53:15;96526.00;;;-0.60
20848;BMP180;10584;50.854;12.902;2024-01-15T21:58:38;96533.00;;;-0.60
20848;BMP180;10584;50.854;12.902;2024-01-15T22:04:00;96541.00;;;-0.60
20848;BMP180;10584;50.854;12.902;2024-01-15T22:09:21;96548.00;;;-0.50
20848;BMP180;10584;50.854;12.902;2024-01-15T22:14:43;96565.00;;;-0.50
20848;BMP180;10584;50.854;12.902;2024-01-15T22:20:08;96571.00;;;-0.60
20848;BMP180;10584;50.854;12.902;2024-01-15T22:25:30;96593.00;;;-0.50
20848;BMP180;10584;50.854;12.902;2024-01-15T22:30:53;96596.00;;;-0.50
20848;BMP180;10584;50.854;12.902;2024-01-15T22:36:15;96592.00;;;-0.60
20848;BMP180;10584;50.854;12.902;2024-01-15T22:41:36;96616.00;;;-0.60
20848;BMP180;10584;50.854;12.902;2024-01-15T22:46:58;96611.00;;;-0.60
20848;BMP180;10584;50.854;12.902;2024-01-15T22:52:19;96616.00;;;-0.50
20848;BMP180;10584;50.854;12.902;2024-01-15T22:57:41;96620.00;;;-0.50
20848;BMP180;10584;50.854;12.902;2024-01-15T23:03:03;96618.00;;;-0.50
20848;BMP180;10584;50.854;12.902;2024-01-15T23:08:25;96635.00;;;-0.60
20848;BMP180;10584;50.854;12.902;2024-01-15T23:13:47;96624.00;;;-0.60
20848;BMP180;10584;50.854;12.902;2024-01-15T23:19:08;96627.00;;;-0.60
20848;BMP180;10584;50.854;12.902;2024-01-15T23:24:30;96613.00;;;-0.60
20848;BMP180;10584;50.854;12.902;2024-01-15T23:29:51;96626.00;;;-0.60
20848;BMP180;10584;50.854;12.902;2024-01-15T23:35:14;96630.00;;;-0.70
20848;BMP180;10584;50.854;12.902;2024-01-15T23:40:36;96638.00;;;-1.00
20848;BMP180;10584;50.854;12.902;2024-01-15T23:45:57;96652.00;;;-1.10
20848;BMP180;10584;50.854;12.902;2024-01-15T23:51:33;96657.00;;;-0.90
20848;BMP180;10584;50.854;12.902;2024-01-15T23:56:55;96647.00;;;-1.10
